• Join FlightAware (Why Join?)
  • Login
  • US Flag 
04:55PM EDT


 

Airport Tracker/Info


-or-


 

Live Flight TrackerFlight Track Log ✈ KAP927 ✈ 16-May-2013 ✈ KOGS - KALB

Flight Track Log - Related Links

Times and Time Zones

All times are in EDT time to prevent confusion due to time zone crossing. See the KAP927 flight status page for this flight to view local times or setup timezone preferences in your user account.

Time Position Orientation Groundspeed Altitude Reporting Facility
EDT Latitude Longitude Course Direction KTS MPH feet Rate Location/Type
05:40PM 44.4064 -75.1544 148° Southeast 155 178 4,900  Level Boston Center
05:41PM 44.3697 -75.1208 147° Southeast 161 185 5,300 360 Climbing Boston Center
05:42PM 44.3350 -75.0931 150° Southeast 161 185 5,700 360 Climbing Boston Center
05:43PM 44.2981 -75.0594 147° Southeast 155 178 6,100 360 Climbing Boston Center
05:44PM 44.2614 -75.0289 149° Southeast 155 178 6,500 420 Climbing Boston Center
05:45PM 44.4902 -75.2947 149° Southeast  Level Estimated
05:45PM 44.2244 -74.9983 149° Southeast 155 178 7,000  Level Boston Center
05:46PM 44.4531 -75.2626 148° Southeast  Level FlightAware Approximate
05:46PM 44.1878 -74.9678 149° Southeast 155 178 7,300  Level Boston Center
05:47PM 44.1467 -74.9369 152° Southeast 155 178 7,500 60 Climbing Boston Center
05:48PM 44.1056 -74.9064 152° Southeast 155 178 7,500 -60 Level Boston Center
05:49PM 44.0606 -74.8697 150° Southeast 166 191 7,400  Descending Boston Center
05:50PM 44.0197 -74.8364 150° Southeast 173 199 7,500  Climbing Boston Center
05:51PM 43.9725 -74.7969 149° Southeast 179 206 7,500 -60 Level Boston Center
05:52PM 43.9294 -74.7608 149° Southeast 179 206 7,400  Descending Boston Center
05:53PM 43.8844 -74.7217 148° Southeast 179 206 7,600 60 Climbing Boston Center
05:54PM 43.8414 -74.6825 147° Southeast 179 206 7,600  Level Boston Center
05:55PM 43.7983 -74.6464 149° Southeast 179 206 7,600  Level Boston Center
05:56PM 43.7431 -74.6011 149° Southeast 179 206 7,600  Level Boston Center
05:57PM 43.7000 -74.5653 149° Southeast 179 206 7,600 -60 Level Boston Center
05:58PM 43.6589 -74.5264 146° Southeast 179 206 7,500  Descending Boston Center
05:59PM 43.6178 -74.4906 148° Southeast 179 206 7,600  Climbing Boston Center
06:00PM 43.5728 -74.4547 150° Southeast 179 206 7,600  Level Boston Center
06:01PM 43.5294 -74.4217 151° Southeast 179 206 7,600  Level Boston Center
06:02PM 43.4842 -74.3858 150° Southeast 179 206 7,600 -120 Level Boston Center
06:03PM 43.4697 -74.3742 150° Southeast 184 212 7,500  Descending Boston Center
06:03PM 43.4411 -74.3503 149° Southeast 179 206 7,600  Climbing Boston Center
06:04PM 43.4206 -74.3297 144° Southeast 187 215 7,500 -120 Descending Boston Center
06:04PM 43.4000 -74.3117 147° Southeast 179 206 7,500 -120 Level Boston Center
06:05PM 43.3794 -74.2911 144° Southeast 180 207 7,400 -240 Descending Boston Center
06:05PM 43.3528 -74.2647 144° Southeast 179 206 7,300 -300 Descending Boston Center
06:06PM 43.3383 -74.2528 149° Southeast 184 212 7,100 -540 Descending Boston Center
06:06PM 43.3097 -74.2264 146° Southeast 193 222 6,800 -600 Descending Boston Center
06:07PM 43.2869 -74.2056 146° Southeast 213 245 6,500 -600 Descending Boston Center
06:07PM 43.2561 -74.1792 148° Southeast 199 229 6,200 -480 Descending Boston Center
06:08PM 43.2314 -74.1614 152° Southeast 210 242 6,000 -420 Descending Boston Center
06:08PM 43.2131 -74.1436 145° Southeast 205 236 5,800 -660 Descending Boston Center
06:09PM 43.1861 -74.1231 151° Southeast 205 236 5,400 -600 Descending Boston Center
06:09PM 43.1594 -74.1022 150° Southeast 205 236 5,200 -420 Descending Boston Center
06:10PM 43.1389 -74.0847 148° Southeast 201 231 5,000 -300 Descending Boston Center
06:10PM 43.1183 -74.0669 148° Southeast 205 236 4,900 -420 Descending Boston Center
06:11PM 43.0936 -74.0436 145° Southeast 198 228 4,600 -540 Descending Boston Center
06:11PM 43.0689 -74.0175 142° Southeast 205 236 4,400 -300 Descending Boston Center
06:12PM 43.0503 -74.0000 146° Southeast 196 226 4,300 -420 Descending Boston Center
06:12PM 43.0278 -73.9822 150° Southeast 199 229 4,000 -600 Descending Boston Center
06:13PM 43.0008 -73.9589 148° Southeast 195 224 3,700 -420 Descending Boston Center
06:13PM 42.9761 -73.9356 145° Southeast 199 229 3,600 -300 Descending Boston Center
06:14PM 42.9578 -73.9153 141° Southeast 199 229 3,400 -300 Descending Boston Center
06:14PM 42.9372 -73.8978 148° Southeast 199 229 3,300 -420 Descending Boston Center
06:15PM 42.9103 -73.8717 145° Southeast 196 226 3,000 -420 Descending Boston Center
06:15PM 42.8939 -73.8628 158° South 199 229 2,900 -600 Descending Boston Center
06:16PM 42.8628 -73.8367 148° Southeast 197 227 2,400 -300 Descending Boston Center
06:16PM 42.8403 -73.8106 140° Southeast 199 229 2,600 -540 Climbing Boston Center
06:17PM 42.8153 -73.7958 157° South 189 217 1,900 4,860 Descending Boston Center
06:17PM 42.8031 -73.7786 134° Southeast 199 229 7,500 -720 Climbing Boston Center
06:18PM 42.7719 -73.7639 161° South 169 194 1,200 -4,560 Descending Boston Center
06:19PM 42.7489 -73.7803 208° Southwest 88 101 500 -720 Descending Boston Center
06:21PM 42.7333 -73.8000 160° South  Level FlightAware Approximate